TVP7774 EPKT-LTBS
Flight info
| Callsign | TVP7774 |
|---|---|
| Flight time | N/A |
| Altitude | 370000 |
| Route | REGTO T195 RAZEC N133 KEKED APROB ADORU UG80 EKI UL854 ESKIN UW81 DEN W87 ATSAL |
| Aircraft | B38M/M-SDE3FGHIJ1J3J4J7M3P2RWXY/LB1D1 |
Departure
| Time | 2026-04-27 16:28 |
|---|---|
| Airport | Katowice Wojciech Korfanty International Airport (EPKT) |
Arrival
| Time | N/A |
|---|---|
| Airport | Dalaman International Airport (LTBS) |
| Time | Latitude | Longitude | Altitude | Speed | Heading |
|---|---|---|---|---|---|
| 2026-04-27 15:49 | 50.47167 | 19.06952 | 1001 ft | 0 kts | 180° |
| 2026-04-27 16:15 | 50.47169 | 19.06952 | 1001 ft | 2 kts | 180° |
| 2026-04-27 16:15 | 50.47216 | 19.06952 | 1001 ft | 4 kts | 186° |
| 2026-04-27 16:16 | 50.47235 | 19.07001 | 1001 ft | 4 kts | 270° |
| 2026-04-27 16:16 | 50.47235 | 19.07026 | 1001 ft | 2 kts | 270° |
| 2026-04-27 16:23 | 50.47235 | 19.07019 | 1004 ft | 3 kts | 270° |
| 2026-04-27 16:23 | 50.47236 | 19.06797 | 1001 ft | 13 kts | 270° |
| 2026-04-27 16:23 | 50.47249 | 19.06647 | 1002 ft | 14 kts | 310° |
| 2026-04-27 16:24 | 50.47348 | 19.06625 | 1001 ft | 17 kts | 0° |
| 2026-04-27 16:24 | 50.47426 | 19.06968 | 1001 ft | 22 kts | 90° |
| 2026-04-27 16:25 | 50.47426 | 19.07465 | 1001 ft | 24 kts | 90° |
| 2026-04-27 16:25 | 50.47425 | 19.08007 | 1003 ft | 26 kts | 90° |
| 2026-04-27 16:26 | 50.47423 | 19.08595 | 1005 ft | 28 kts | 90° |
| 2026-04-27 16:26 | 50.47421 | 19.09157 | 1001 ft | 23 kts | 90° |
| 2026-04-27 16:27 | 50.47517 | 19.09391 | 1002 ft | 15 kts | 359° |
| 2026-04-27 16:27 | 50.47600 | 19.08244 | 1000 ft | 118 kts | 270° |
| 2026-04-27 16:28 | 50.47577 | 19.04691 | 1740 ft | 182 kts | 273° |
| 2026-04-27 16:28 | 50.47586 | 19.00655 | 3420 ft | 192 kts | 273° |
| 2026-04-27 16:29 | 50.45972 | 18.94325 | 4855 ft | 244 kts | 206° |
| 2026-04-27 16:30 | 50.42414 | 18.93767 | 5998 ft | 277 kts | 181° |
| 2026-04-27 16:30 | 50.38478 | 18.93761 | 7442 ft | 287 kts | 182° |
| 2026-04-27 16:31 | 50.32324 | 18.93735 | 9530 ft | 304 kts | 182° |
| 2026-04-27 16:31 | 50.28318 | 18.95896 | 10647 ft | 324 kts | 136° |
| 2026-04-27 16:32 | 50.25353 | 19.01663 | 11513 ft | 359 kts | 126° |
| 2026-04-27 16:32 | 50.23780 | 19.04800 | 12024 ft | 373 kts | 126° |
| 2026-04-27 16:33 | 50.20537 | 19.11272 | 13492 ft | 385 kts | 126° |
| 2026-04-27 16:33 | 50.18868 | 19.14598 | 14161 ft | 392 kts | 126° |
| 2026-04-27 16:33 | 50.17175 | 19.17967 | 14830 ft | 396 kts | 126° |
| 2026-04-27 16:33 | 50.15462 | 19.21372 | 15484 ft | 401 kts | 126° |
| 2026-04-27 16:34 | 50.13729 | 19.24812 | 16124 ft | 405 kts | 126° |
| 2026-04-27 16:34 | 50.11999 | 19.28241 | 16744 ft | 410 kts | 126° |
| 2026-04-27 16:34 | 50.10223 | 19.31759 | 17359 ft | 414 kts | 126° |
| 2026-04-27 16:34 | 50.08430 | 19.35303 | 17974 ft | 419 kts | 126° |
| 2026-04-27 16:35 | 50.06617 | 19.38883 | 18560 ft | 423 kts | 126° |
| 2026-04-27 16:35 | 50.04781 | 19.42504 | 19069 ft | 427 kts | 127° |
| 2026-04-27 16:35 | 50.01066 | 19.49813 | 20108 ft | 435 kts | 127° |
| 2026-04-27 16:36 | 49.99819 | 19.52262 | 20449 ft | 437 kts | 127° |
| 2026-04-27 16:36 | 49.97921 | 19.55985 | 20965 ft | 441 kts | 127° |
| 2026-04-27 16:36 | 49.96010 | 19.59729 | 21465 ft | 445 kts | 127° |
| 2026-04-27 16:36 | 49.93444 | 19.64747 | 22124 ft | 450 kts | 127° |
| 2026-04-27 16:37 | 49.92128 | 19.67317 | 22460 ft | 452 kts | 127° |
| 2026-04-27 16:37 | 49.90159 | 19.71157 | 22950 ft | 456 kts | 127° |
| 2026-04-27 16:37 | 49.88177 | 19.75019 | 23426 ft | 459 kts | 127° |
| 2026-04-27 16:37 | 49.86179 | 19.78903 | 23869 ft | 463 kts | 128° |
| 2026-04-27 16:38 | 49.84159 | 19.82826 | 24277 ft | 466 kts | 127° |
| 2026-04-27 16:38 | 49.82156 | 19.86710 | 24663 ft | 469 kts | 128° |
| 2026-04-27 16:38 | 49.80109 | 19.90674 | 25054 ft | 472 kts | 128° |
| 2026-04-27 16:38 | 49.78048 | 19.94658 | 25429 ft | 475 kts | 128° |
| 2026-04-27 16:39 | 49.75970 | 19.98670 | 25799 ft | 478 kts | 128° |
| 2026-04-27 16:39 | 49.73881 | 20.02696 | 26167 ft | 481 kts | 128° |
| 2026-04-27 16:39 | 49.71777 | 20.06745 | 26532 ft | 484 kts | 128° |
| 2026-04-27 16:39 | 49.69658 | 20.10816 | 26891 ft | 487 kts | 128° |
| 2026-04-27 16:40 | 49.67524 | 20.14909 | 27230 ft | 490 kts | 128° |
| 2026-04-27 16:40 | 49.65380 | 20.19017 | 27600 ft | 493 kts | 128° |
| 2026-04-27 16:40 | 49.63223 | 20.23142 | 27954 ft | 495 kts | 128° |
| 2026-04-27 16:40 | 49.61079 | 20.27235 | 28279 ft | 498 kts | 128° |
| 2026-04-27 16:41 | 49.58894 | 20.31402 | 28601 ft | 501 kts | 128° |
| 2026-04-27 16:41 | 49.56699 | 20.35579 | 28925 ft | 503 kts | 129° |
| 2026-04-27 16:41 | 49.54487 | 20.39783 | 29248 ft | 506 kts | 128° |
| 2026-04-27 16:41 | 49.52264 | 20.44002 | 29559 ft | 508 kts | 129° |
| 2026-04-27 16:42 | 49.50028 | 20.48238 | 29885 ft | 510 kts | 129° |
| 2026-04-27 16:42 | 49.47782 | 20.52490 | 30210 ft | 513 kts | 129° |
| 2026-04-27 16:42 | 49.45525 | 20.56755 | 30464 ft | 515 kts | 129° |
| 2026-04-27 16:42 | 49.43262 | 20.61026 | 30772 ft | 516 kts | 129° |
| 2026-04-27 16:43 | 49.40822 | 20.65059 | 30998 ft | 516 kts | 142° |
| 2026-04-27 16:43 | 49.37822 | 20.68044 | 31277 ft | 511 kts | 156° |
| 2026-04-27 16:43 | 49.34629 | 20.70490 | 31453 ft | 515 kts | 157° |
| 2026-04-27 16:43 | 49.31406 | 20.72905 | 31731 ft | 515 kts | 158° |
| 2026-04-27 16:44 | 49.28168 | 20.75285 | 32029 ft | 516 kts | 158° |
| 2026-04-27 16:44 | 49.24930 | 20.77632 | 32402 ft | 514 kts | 158° |
| 2026-04-27 16:44 | 49.21741 | 20.79930 | 32788 ft | 512 kts | 158° |
| 2026-04-27 16:44 | 49.18524 | 20.82244 | 33157 ft | 511 kts | 158° |
| 2026-04-27 16:45 | 49.15304 | 20.84557 | 33511 ft | 510 kts | 159° |
| 2026-04-27 16:45 | 49.12099 | 20.86856 | 33897 ft | 508 kts | 159° |